Disclaimer

Please do not use the information listed here in-flight or in-navigation, as they are not provided to us by the airports but are provided by volunteers, so they might be outdated.

Search


Regions


Airport information page

Radio informations:
CAMPINAS TWR - 118.25 MHz
Ground (GND) - 121.9 MHz
CAMPINAS APP - 121.4 MHz

Airport informations:
Latitude: 23° 00' 26.58" S
Longitude: 047° 08' 04.28" W
Elevation: 2170 feet - 661 meters
Operating hours: 24 hour operations
Operating agency: Civil government, landing fees and diplomatic clearance may be required
Timezone: UTC-3(-2DT)
Fuel: Jet A1, without icing nhibitor.

Runway information:
15/33 - 10630 x 148 feet< - >3240 x 45 meters

Recent METARs:
SBKP 211700Z 13013KT 9999 FEW030 BKN043 24/16 Q1017
SBKP 211700Z 13013KT 9999 FEW030 BKN043 24/16 Q1017
SBKP 211800Z 13012KT 9999 FEW030 BKN080 24/16 Q1016

Airport on the map: